Time;durP1;ratioP1;P1;durP2;ratioP2;P2;SDS_P1;SDS_P2;PMS_P1;PMS_P2;Temp;Humidity;BMP_temperature;BMP_pressure;BME280_temperature;BME280_humidity;BME280_pressure;Samples;Min_cycle;Max_cycle;Signal;HPM_P1;HPM_P2
2023/07/25 00:00:26;;;;;;;0.10;0.10;;;17.60;89.00;;;;;;5065688;28;20060;-83
2023/07/25 00:02:52;;;;;;;0.20;0.20;;;17.60;89.20;;;;;;5065054;28;20800;-83
2023/07/25 00:05:17;;;;;;;0.30;0.30;;;17.60;89.80;;;;;;5065453;28;20515;-82
2023/07/25 00:07:43;;;;;;;0.40;0.40;;;17.80;89.50;;;;;;5063750;28;20023;-81
2023/07/25 00:10:09;;;;;;;0.50;0.50;;;17.90;89.20;;;;;;5063354;28;20025;-81
2023/07/25 00:12:36;;;;;;;0.03;0.03;;;17.80;88.60;;;;;;5061279;28;20029;-81
2023/07/25 00:15:02;;;;;;;0.10;0.10;;;17.70;90.10;;;;;;5065398;28;20032;-82
2023/07/25 00:17:28;;;;;;;0.17;0.17;;;17.80;89.80;;;;;;5065182;28;20039;-82
2023/07/25 00:19:54;;;;;;;0.20;0.20;;;17.80;89.20;;;;;;5064340;28;20057;-81
2023/07/25 00:22:20;;;;;;;0.30;0.30;;;17.80;88.90;;;;;;5064758;28;20028;-80
2023/07/25 00:24:45;;;;;;;3.93;2.33;;;17.50;90.00;;;;;;5056969;28;20032;-81
2023/07/25 00:27:11;;;;;;;0.20;0.20;;;17.20;90.70;;;;;;5065356;28;20039;-83
2023/07/25 00:29:37;;;;;;;0.27;0.27;;;17.20;90.90;;;;;;5065044;28;20029;-84
2023/07/25 00:32:03;;;;;;;0.00;0.00;;;17.20;91.20;;;;;;5064724;28;20380;-84
2023/07/25 00:34:29;;;;;;;0.25;0.20;;;17.20;91.10;;;;;;5063245;28;20044;-84
2023/07/25 00:36:54;;;;;;;0.37;0.37;;;17.10;91.20;;;;;;5065091;28;20036;-83
2023/07/25 00:39:20;;;;;;;0.20;0.20;;;17.10;91.10;;;;;;5064774;28;20024;-84
2023/07/25 00:41:46;;;;;;;0.53;0.40;;;17.20;91.10;;;;;;5064996;28;20032;-83
2023/07/25 00:44:11;;;;;;;0.10;0.10;;;17.20;90.90;;;;;;5063714;28;20028;-84
2023/07/25 00:46:37;;;;;;;0.10;0.10;;;17.40;91.00;;;;;;5064045;28;20028;-83
2023/07/25 00:49:04;;;;;;;0.47;0.47;;;17.40;90.70;;;;;;5062873;28;20091;-84
2023/07/25 00:51:31;;;;;;;0.10;0.10;;;17.50;90.60;;;;;;5063560;28;20503;-81
2023/07/25 00:53:57;;;;;;;0.25;0.25;;;17.50;90.30;;;;;;5062161;28;20047;-81
2023/07/25 00:56:23;;;;;;;0.10;0.10;;;17.20;90.60;;;;;;5059468;28;20032;-81
2023/07/25 00:58:49;;;;;;;0.45;0.35;;;16.90;91.30;;;;;;5063059;28;20032;-81
2023/07/25 01:01:15;;;;;;;0.00;0.00;;;16.80;92.00;;;;;;5060247;28;20040;-81
2023/07/25 01:03:41;;;;;;;0.00;0.00;;;16.80;91.90;;;;;;5063868;28;20024;-81
2023/07/25 01:06:12;;;;;;;0.38;0.38;;;16.90;91.70;;;;;;5061721;28;20024;-81
2023/07/25 01:08:52;;;;;;;0.32;0.30;;;16.80;91.60;;;;;;5063342;28;20029;-82
2023/07/25 01:11:19;;;;;;;1.70;0.40;;;16.90;91.80;;;;;;5061110;28;20040;-82
2023/07/25 01:13:45;;;;;;;0.60;0.45;;;17.10;91.20;;;;;;5063094;28;20033;-82
2023/07/25 01:16:14;;;;;;;0.00;0.00;;;17.20;91.00;;;;;;5062398;28;20891;-81
2023/07/25 01:18:40;;;;;;;0.00;0.00;;;17.20;90.60;;;;;;5062595;28;20021;-82
2023/07/25 01:21:07;;;;;;;0.00;0.00;;;17.20;90.50;;;;;;5061942;28;20056;-82
2023/07/25 01:23:33;;;;;;;0.00;0.00;;;17.20;90.70;;;;;;5063193;28;20082;-83
2023/07/25 01:25:59;;;;;;;0.43;0.43;;;17.00;91.00;;;;;;5062288;28;20538;-82
2023/07/25 01:28:26;;;;;;;0.30;0.30;;;16.90;91.20;;;;;;5061554;28;20028;-81
2023/07/25 01:30:51;;;;;;;0.80;0.47;;;16.90;91.20;;;;;;5061674;28;20036;-82
2023/07/25 01:33:17;;;;;;;0.00;0.00;;;16.90;91.10;;;;;;5063473;28;20055;-82
2023/07/25 01:35:42;;;;;;;0.10;0.10;;;17.00;91.00;;;;;;5062488;28;20025;-82
2023/07/25 01:38:08;;;;;;;0.00;0.00;;;16.80;91.40;;;;;;5062877;28;20104;-83
2023/07/25 01:40:34;;;;;;;0.00;0.00;;;16.60;91.70;;;;;;5060740;28;20135;-82
2023/07/25 01:43:00;;;;;;;0.00;0.00;;;16.50;92.00;;;;;;5062939;28;20048;-82
2023/07/25 01:45:25;;;;;;;0.00;0.00;;;16.50;92.30;;;;;;5060281;28;20024;-81
2023/07/25 01:47:51;;;;;;;0.10;0.10;;;16.40;92.40;;;;;;5062314;28;20028;-82
2023/07/25 01:50:17;;;;;;;0.20;0.20;;;16.70;92.20;;;;;;5061926;28;20040;-81
2023/07/25 01:52:43;;;;;;;0.00;0.00;;;16.90;91.70;;;;;;5062368;28;20087;-82
2023/07/25 01:55:09;;;;;;;0.00;0.00;;;17.00;91.40;;;;;;5062000;28;20031;-82
2023/07/25 01:57:34;;;;;;;0.00;0.00;;;17.10;91.30;;;;;;5061741;28;20039;-82
2023/07/25 02:00:00;;;;;;;0.00;0.00;;;17.20;91.10;;;;;;5062041;28;20036;-81
2023/07/25 02:02:26;;;;;;;0.00;0.00;;;17.10;91.20;;;;;;5062228;28;20025;-81
2023/07/25 02:04:51;;;;;;;0.00;0.00;;;16.90;91.40;;;;;;5061997;28;20055;-81
2023/07/25 02:07:17;;;;;;;0.00;0.00;;;16.90;91.80;;;;;;5057913;28;20760;-81
2023/07/25 02:09:43;;;;;;;0.33;0.23;;;16.80;92.10;;;;;;5062488;28;20108;-81
2023/07/25 02:12:08;;;;;;;0.00;0.00;;;16.70;92.10;;;;;;5062608;28;20082;-81
2023/07/25 02:14:34;;;;;;;0.10;0.10;;;16.80;92.10;;;;;;5061814;28;20033;-81
2023/07/25 02:17:00;;;;;;;0.30;0.30;;;16.90;92.10;;;;;;5061953;28;20684;-81
2023/07/25 02:19:27;;;;;;;0.93;0.50;;;16.90;91.90;;;;;;5060581;28;20876;-82
2023/07/25 02:21:52;;;;;;;0.30;0.30;;;16.90;92.20;;;;;;5062452;28;20633;-81
2023/07/25 02:24:18;;;;;;;0.00;0.00;;;16.90;92.50;;;;;;5061886;28;20032;-82
2023/07/25 02:26:44;;;;;;;0.00;0.00;;;16.80;92.50;;;;;;5061818;28;20025;-84
2023/07/25 02:29:09;;;;;;;0.83;0.63;;;16.80;92.50;;;;;;5062105;28;20549;-84
2023/07/25 02:31:35;;;;;;;0.87;0.60;;;17.00;92.40;;;;;;5061194;28;20394;-83
2023/07/25 02:34:01;;;;;;;0.07;0.07;;;17.00;92.30;;;;;;5061850;28;20092;-83
2023/07/25 02:36:27;;;;;;;0.47;0.28;;;17.00;92.80;;;;;;5062790;28;20107;-82
2023/07/25 02:38:53;;;;;;;0.00;0.00;;;17.00;92.80;;;;;;5060496;28;20500;-83
2023/07/25 02:41:18;;;;;;;6.67;1.10;;;17.10;92.70;;;;;;5061093;28;20142;-83
2023/07/25 02:43:45;;;;;;;2.47;1.30;;;17.00;92.70;;;;;;5059592;28;20104;-82
2023/07/25 02:46:11;;;;;;;0.00;0.00;;;16.80;93.30;;;;;;5062924;28;20053;-81
2023/07/25 02:48:36;;;;;;;0.10;0.10;;;16.90;93.10;;;;;;5063228;28;20476;-82
2023/07/25 02:51:02;;;;;;;0.10;0.10;;;16.80;93.30;;;;;;5060633;28;20082;-82
2023/07/25 02:53:28;;;;;;;1.70;0.67;;;16.90;93.20;;;;;;5065166;28;20122;-82
2023/07/25 02:55:54;;;;;;;0.50;0.50;;;16.90;93.20;;;;;;5065477;28;20028;-82
2023/07/25 02:58:20;;;;;;;0.00;0.00;;;17.00;93.50;;;;;;5066465;28;20503;-83
2023/07/25 03:00:47;;;;;;;0.10;0.10;;;16.90;93.30;;;;;;5065784;28;20048;-83
2023/07/25 03:03:13;;;;;;;0.08;0.08;;;17.00;93.70;;;;;;5065131;28;20024;-83
2023/07/25 03:05:39;;;;;;;0.00;0.00;;;17.00;93.70;;;;;;5065096;28;20102;-83
2023/07/25 03:08:05;;;;;;;0.00;0.00;;;16.90;93.70;;;;;;5065935;28;20021;-82
2023/07/25 03:10:31;;;;;;;0.00;0.00;;;16.90;93.90;;;;;;5063499;28;20858;-82
2023/07/25 03:12:57;;;;;;;1.13;0.57;;;17.00;93.90;;;;;;5065550;28;20064;-82
2023/07/25 03:15:23;;;;;;;0.00;0.00;;;16.90;94.50;;;;;;5066159;28;20115;-82
2023/07/25 03:17:48;;;;;;;4.50;1.30;;;17.00;94.10;;;;;;5065288;28;20107;-81
2023/07/25 03:20:14;;;;;;;0.00;0.00;;;17.00;94.20;;;;;;5065104;28;20080;-82
2023/07/25 03:22:40;;;;;;;0.03;0.03;;;17.00;94.30;;;;;;5064369;28;20567;-82
2023/07/25 03:25:06;;;;;;;0.60;0.60;;;17.00;94.40;;;;;;5065368;28;20028;-83
2023/07/25 03:27:32;;;;;;;0.00;0.00;;;16.90;94.60;;;;;;5065428;28;20589;-83
2023/07/25 03:29:57;;;;;;;0.00;0.00;;;17.00;94.70;;;;;;5063865;28;20300;-82
2023/07/25 03:32:23;;;;;;;3.00;0.87;;;16.80;95.00;;;;;;5065551;28;20029;-82
2023/07/25 03:34:49;;;;;;;9.00;0.60;;;16.70;96.20;;;;;;5065771;28;20537;-82
2023/07/25 03:37:14;;;;;;;0.00;0.00;;;16.40;96.50;;;;;;5065840;28;20054;-82
2023/07/25 03:39:40;;;;;;;0.37;0.37;;;16.20;99.10;;;;;;5065024;28;20035;-81
2023/07/25 03:42:06;;;;;;;0.20;0.20;;;16.10;99.90;;;;;;5064016;28;20068;-81
2023/07/25 03:44:31;;;;;;;0.20;0.20;;;15.70;99.90;;;;;;5063601;28;20140;-81
2023/07/25 03:46:57;;;;;;;0.00;0.00;;;15.70;99.90;;;;;;5064492;28;20827;-83
2023/07/25 03:49:23;;;;;;;0.20;0.20;;;15.60;99.90;;;;;;5062301;28;20024;-82
2023/07/25 03:51:49;;;;;;;0.00;0.00;;;15.80;99.90;;;;;;5064698;28;20035;-82
2023/07/25 03:54:14;;;;;;;0.17;0.17;;;15.70;99.90;;;;;;5064713;28;20427;-82
2023/07/25 03:56:40;;;;;;;1.90;1.20;;;15.50;99.90;;;;;;5064530;28;20395;-82
2023/07/25 03:59:06;;;;;;;0.33;0.33;;;15.60;99.90;;;;;;5064964;28;20543;-82
2023/07/25 04:01:31;;;;;;;0.20;0.20;;;15.70;99.90;;;;;;5064546;28;20111;-83
2023/07/25 04:03:57;;;;;;;0.10;0.10;;;15.70;99.90;;;;;;5063936;28;20025;-83
2023/07/25 04:06:23;;;;;;;0.10;0.10;;;15.80;99.90;;;;;;5064524;28;20032;-82
2023/07/25 04:08:49;;;;;;;0.30;0.30;;;15.90;99.90;;;;;;5065157;28;20020;-82
2023/07/25 04:11:15;;;;;;;0.00;0.00;;;15.70;99.90;;;;;;5064316;28;20029;-84
2023/07/25 04:13:40;;;;;;;0.20;0.20;;;15.70;99.90;;;;;;5064274;28;20479;-83
2023/07/25 04:16:06;;;;;;;0.33;0.33;;;15.90;99.90;;;;;;5064725;28;20247;-83
2023/07/25 04:18:32;;;;;;;0.67;0.67;;;15.80;99.90;;;;;;5065181;28;20029;-82
2023/07/25 04:20:57;;;;;;;0.20;0.20;;;15.70;99.90;;;;;;5064116;28;20064;-81
2023/07/25 04:23:23;;;;;;;0.67;0.67;;;15.90;99.90;;;;;;5064908;28;20102;-81
2023/07/25 04:25:49;;;;;;;0.10;0.10;;;16.00;99.90;;;;;;5062021;28;20036;-81
2023/07/25 04:28:15;;;;;;;5.63;1.40;;;15.80;99.90;;;;;;5064559;28;20078;-81
2023/07/25 04:30:42;;;;;;;0.10;0.10;;;15.90;99.90;;;;;;5061504;28;20745;-81
2023/07/25 04:33:07;;;;;;;0.00;0.00;;;16.00;99.90;;;;;;5064816;28;20062;-80
2023/07/25 04:35:33;;;;;;;0.10;0.10;;;16.00;99.90;;;;;;5063817;28;20068;-82
2023/07/25 04:37:59;;;;;;;0.10;0.10;;;15.90;99.90;;;;;;5060132;28;20024;-82
2023/07/25 04:40:25;;;;;;;0.00;0.00;;;15.90;99.90;;;;;;5063846;28;20051;-83
2023/07/25 04:42:51;;;;;;;0.70;0.70;;;15.60;99.90;;;;;;5059260;28;20031;-82
2023/07/25 04:45:17;;;;;;;0.20;0.20;;;15.50;99.90;;;;;;5063708;28;20036;-83
2023/07/25 04:47:42;;;;;;;0.10;0.10;;;15.20;99.90;;;;;;5056441;28;20063;-82
2023/07/25 04:50:09;;;;;;;2.70;1.60;;;15.30;99.90;;;;;;5063861;28;20035;-83
2023/07/25 04:52:34;;;;;;;0.17;0.17;;;15.20;99.90;;;;;;5061940;28;20839;-80
2023/07/25 04:55:00;;;;;;;0.00;0.00;;;15.30;99.90;;;;;;5061585;28;20036;-80
2023/07/25 04:57:26;;;;;;;9.63;1.40;;;15.10;99.90;;;;;;5063354;28;20040;-80
2023/07/25 04:59:52;;;;;;;0.10;0.10;;;15.30;99.90;;;;;;5062246;28;20107;-80
2023/07/25 05:02:19;;;;;;;0.30;0.30;;;15.40;99.90;;;;;;5062525;28;20123;-80
2023/07/25 05:04:45;;;;;;;0.52;0.52;;;15.20;99.90;;;;;;5062639;28;20028;-80
2023/07/25 05:07:10;;;;;;;0.00;0.00;;;15.20;99.90;;;;;;5063605;28;20032;-80
2023/07/25 05:09:36;;;;;;;0.37;0.37;;;15.10;99.90;;;;;;5063169;28;20043;-80
2023/07/25 05:12:04;;;;;;;0.07;0.07;;;15.00;99.90;;;;;;5061694;28;20031;-80
2023/07/25 05:14:30;;;;;;;0.00;0.00;;;15.10;99.90;;;;;;5062680;28;20161;-80
2023/07/25 05:16:56;;;;;;;0.00;0.00;;;15.50;99.90;;;;;;5063273;28;20025;-82
2023/07/25 05:19:21;;;;;;;0.77;0.77;;;15.70;99.70;;;;;;5062218;28;20040;-82
2023/07/25 05:21:47;;;;;;;0.00;0.00;;;15.50;99.10;;;;;;5063573;28;20770;-83
2023/07/25 05:24:14;;;;;;;0.20;0.20;;;15.40;99.90;;;;;;5062882;28;20035;-82
2023/07/25 05:26:41;;;;;;;0.32;0.28;;;15.50;99.60;;;;;;5063138;28;20032;-82
2023/07/25 05:29:07;;;;;;;0.00;0.00;;;15.50;99.40;;;;;;5063672;28;20036;-82
2023/07/25 05:31:33;;;;;;;0.20;0.20;;;15.50;99.00;;;;;;5062744;28;20037;-82
2023/07/25 05:33:59;;;;;;;0.27;0.27;;;15.20;99.80;;;;;;5061372;28;20044;-81
2023/07/25 05:36:24;;;;;;;0.10;0.10;;;15.10;99.70;;;;;;5061721;28;20055;-81
2023/07/25 05:38:50;;;;;;;0.40;0.40;;;16.20;96.30;;;;;;5062251;28;20032;-81
2023/07/25 05:41:16;;;;;;;0.13;0.13;;;16.60;94.80;;;;;;5062534;28;20140;-81
2023/07/25 05:43:42;;;;;;;0.10;0.10;;;17.30;94.60;;;;;;5062570;28;20544;-81
2023/07/25 05:46:08;;;;;;;0.13;0.13;;;18.50;88.90;;;;;;5060854;28;20031;-82
2023/07/25 05:48:34;;;;;;;0.10;0.10;;;19.20;85.10;;;;;;5062163;28;20017;-83
2023/07/25 05:51:00;;;;;;;0.00;0.00;;;19.90;82.10;;;;;;5062969;28;20036;-82
2023/07/25 05:53:25;;;;;;;0.20;0.20;;;20.50;79.20;;;;;;5061923;28;20872;-82
2023/07/25 05:55:51;;;;;;;0.00;0.00;;;21.00;75.70;;;;;;5061925;28;20032;-83
2023/07/25 05:58:18;;;;;;;0.00;0.00;;;21.50;75.20;;;;;;5061118;28;20085;-81
2023/07/25 06:00:44;;;;;;;;;;;22.90;71.10;;;;;;5063289;28;20029;-81
2023/07/25 06:03:11;;;;;;;0.00;0.00;;;23.60;67.90;;;;;;5062627;28;19909;-80
2023/07/25 06:05:37;;;;;;;0.00;0.00;;;23.40;67.50;;;;;;5059720;28;20033;-81
2023/07/25 06:08:03;;;;;;;0.00;0.00;;;23.30;67.60;;;;;;5061679;28;20062;-81
2023/07/25 06:10:29;;;;;;;0.15;0.15;;;23.10;67.80;;;;;;5061212;28;20090;-81
2023/07/25 06:12:55;;;;;;;0.25;0.25;;;23.60;67.20;;;;;;5061758;28;20032;-83
2023/07/25 06:15:21;;;;;;;0.00;0.00;;;22.60;68.10;;;;;;5061719;28;20040;-81
2023/07/25 06:17:46;;;;;;;0.00;0.00;;;21.40;72.20;;;;;;5061650;28;20519;-82
2023/07/25 06:20:12;;;;;;;0.10;0.10;;;22.50;71.10;;;;;;5061598;28;20057;-82
2023/07/25 06:22:38;;;;;;;0.00;0.00;;;21.70;71.60;;;;;;5062193;28;20032;-83
2023/07/25 06:25:07;;;;;;;0.00;0.00;;;20.40;75.30;;;;;;5061414;28;20214;-81
2023/07/25 06:27:33;;;;;;;0.00;0.00;;;19.10;80.70;;;;;;5061693;28;20479;-82
2023/07/25 06:30:00;;;;;;;3.92;1.35;;;18.90;82.40;;;;;;5066275;28;20036;-82
2023/07/25 06:32:26;;;;;;;0.63;0.43;;;19.10;81.90;;;;;;5065092;28;20463;-82
2023/07/25 06:34:51;;;;;;;0.47;0.47;;;19.50;79.00;;;;;;5064261;28;20099;-83
2023/07/25 06:37:17;;;;;;;0.00;0.00;;;19.30;80.30;;;;;;5059462;28;20024;-82
2023/07/25 06:39:43;;;;;;;0.17;0.15;;;19.10;82.90;;;;;;5065550;28;20116;-82
2023/07/25 06:42:09;;;;;;;1.30;0.77;;;22.40;68.70;;;;;;5066494;28;20096;-82
2023/07/25 06:44:34;;;;;;;0.00;0.00;;;21.30;70.20;;;;;;5065909;28;20035;-83
2023/07/25 06:47:00;;;;;;;0.00;0.00;;;19.00;78.70;;;;;;5065033;28;20055;-83
2023/07/25 06:49:26;;;;;;;0.10;0.10;;;18.40;81.10;;;;;;5066271;28;20028;-83
2023/07/25 06:51:51;;;;;;;0.00;0.00;;;18.20;82.50;;;;;;5066235;28;20108;-83
2023/07/25 06:54:17;;;;;;;0.20;0.20;;;17.90;82.70;;;;;;5065383;28;20032;-82
2023/07/25 06:56:43;;;;;;;0.23;0.23;;;19.10;81.40;;;;;;5058997;28;20025;-82
2023/07/25 06:59:08;;;;;;;0.10;0.10;;;18.60;82.40;;;;;;5055809;28;20021;-82
2023/07/25 07:01:34;;;;;;;4.70;0.57;;;19.10;79.60;;;;;;5064567;28;20036;-81
2023/07/25 07:04:00;;;;;;;0.33;0.33;;;20.60;75.80;;;;;;5064477;28;20017;-80
2023/07/25 07:06:25;;;;;;;0.40;0.37;;;20.30;75.20;;;;;;5062574;28;20025;-81
2023/07/25 07:08:51;;;;;;;0.03;0.03;;;21.10;73.90;;;;;;5065425;28;20039;-81
2023/07/25 07:11:17;;;;;;;0.00;0.00;;;21.30;71.70;;;;;;5061807;28;20111;-81
2023/07/25 07:13:43;;;;;;;0.08;0.08;;;19.50;77.90;;;;;;5064577;28;20035;-80
2023/07/25 07:16:10;;;;;;;0.00;0.00;;;18.40;82.30;;;;;;5063776;28;20032;-82
2023/07/25 07:18:36;;;;;;;0.10;0.10;;;18.00;84.60;;;;;;5063884;28;20047;-81
2023/07/25 07:21:02;;;;;;;0.20;0.20;;;17.50;85.10;;;;;;5060404;28;20068;-81
2023/07/25 07:23:28;;;;;;;0.00;0.00;;;17.30;87.40;;;;;;5070795;28;20056;-83
2023/07/25 07:25:53;;;;;;;0.00;0.00;;;17.50;87.10;;;;;;5062425;28;20104;-82
2023/07/25 07:28:19;;;;;;;0.50;0.50;;;17.70;86.10;;;;;;5069132;28;20013;-81
2023/07/25 07:30:49;;;;;;;0.00;0.00;;;17.70;86.50;;;;;;5066317;28;20035;-81
2023/07/25 07:33:16;;;;;;;0.50;0.45;;;17.90;85.50;;;;;;5064186;28;20060;-78
2023/07/25 07:35:42;;;;;;;0.05;0.05;;;18.00;86.50;;;;;;5060388;28;20098;-80
2023/07/25 07:38:08;;;;;;;0.13;0.13;;;18.50;86.00;;;;;;5059167;28;20032;-82
2023/07/25 07:40:35;;;;;;;0.38;0.38;;;18.10;86.70;;;;;;5054682;28;20052;-81
2023/07/25 07:43:01;;;;;;;0.00;0.00;;;18.20;85.60;;;;;;5063918;28;20090;-81
2023/07/25 07:45:27;;;;;;;0.10;0.10;;;18.00;84.20;;;;;;5063190;28;20052;-81
2023/07/25 07:47:53;;;;;;;0.10;0.10;;;18.20;85.60;;;;;;5064891;28;20036;-83
2023/07/25 07:50:19;;;;;;;0.20;0.20;;;18.70;84.40;;;;;;5064904;28;20044;-81
2023/07/25 07:52:45;;;;;;;3.10;1.00;;;18.70;82.80;;;;;;5072075;28;20290;-81
2023/07/25 07:55:12;;;;;;;0.00;0.00;;;18.80;79.10;;;;;;5063569;28;20040;-81
2023/07/25 07:57:40;;;;;;;0.00;0.00;;;18.80;84.00;;;;;;5062796;28;20110;-80
2023/07/25 08:00:07;;;;;;;0.28;0.28;;;19.00;78.60;;;;;;5062447;28;20028;-81
2023/07/25 08:02:33;;;;;;;0.00;0.00;;;20.40;76.40;;;;;;5062198;28;20426;-81
2023/07/25 08:04:58;;;;;;;0.15;0.15;;;19.90;77.10;;;;;;5057306;28;20071;-81
2023/07/25 08:07:24;;;;;;;0.17;0.17;;;19.50;79.70;;;;;;5070561;28;20089;-81
2023/07/25 08:09:54;;;;;;;0.00;0.00;;;20.30;76.60;;;;;;5061141;28;20024;-81
2023/07/25 08:12:20;;;;;;;11.07;1.98;;;19.70;77.70;;;;;;5052733;28;20496;-80
2023/07/25 08:14:45;;;;;;;0.22;0.22;;;22.00;76.30;;;;;;5058080;28;20060;-81
2023/07/25 08:17:12;;;;;;;0.00;0.00;;;21.30;72.50;;;;;;5053539;28;20116;-81
2023/07/25 08:19:38;;;;;;;0.80;0.60;;;23.50;71.20;;;;;;5061173;28;20025;-82
2023/07/25 08:22:04;;;;;;;0.63;0.63;;;23.70;67.00;;;;;;5063010;28;20069;-81
2023/07/25 08:24:29;;;;;;;0.08;0.08;;;27.50;59.40;;;;;;5064455;28;20399;-79
2023/07/25 08:26:55;;;;;;;0.00;0.00;;;24.00;61.80;;;;;;5063961;28;20028;-81
2023/07/25 08:29:21;;;;;;;0.00;0.00;;;21.40;69.20;;;;;;5062707;28;20905;-82
2023/07/25 08:31:47;;;;;;;0.10;0.10;;;21.40;69.90;;;;;;5055029;28;20032;-81
2023/07/25 08:34:12;;;;;;;0.00;0.00;;;21.40;69.80;;;;;;5061167;28;20033;-82
2023/07/25 08:36:38;;;;;;;0.03;0.03;;;21.70;67.00;;;;;;5060475;28;20266;-81
2023/07/25 08:39:03;;;;;;;0.00;0.00;;;22.80;68.20;;;;;;5058170;28;20020;-81
2023/07/25 08:41:33;;;;;;;0.00;0.00;;;22.70;64.60;;;;;;5061982;28;20035;-81
2023/07/25 08:44:01;;;;;;;0.93;0.93;;;21.50;66.90;;;;;;5058619;28;20539;-81
2023/07/25 08:46:28;;;;;;;1.95;0.47;;;21.10;68.60;;;;;;5062566;28;20029;-80
2023/07/25 08:49:00;;;;;;;0.00;0.00;;;25.80;62.80;;;;;;5059595;28;20025;-80
2023/07/25 08:51:27;;;;;;;0.00;0.00;;;25.00;58.40;;;;;;5059388;28;20032;-79
2023/07/25 08:54:19;;;;;;;0.00;0.00;;;24.80;59.80;;;;;;5062139;28;20036;-80
2023/07/25 08:56:45;;;;;;;0.10;0.10;;;22.90;62.00;;;;;;5061327;28;20391;-80
2023/07/25 08:59:12;;;;;;;0.00;0.00;;;25.40;58.50;;;;;;5062117;28;20094;-80
2023/07/25 09:01:38;;;;;;;7.68;0.73;;;28.40;55.90;;;;;;5061193;28;20120;-82
2023/07/25 09:04:04;;;;;;;0.00;0.00;;;29.40;52.40;;;;;;5062884;28;20547;-80
2023/07/25 09:06:30;;;;;;;;;;;25.00;53.30;;;;;;5058249;28;20029;-82
2023/07/25 09:08:56;;;;;;;0.70;0.70;;;22.10;60.50;;;;;;5062950;28;20766;-78
2023/07/25 09:11:22;;;;;;;0.17;0.17;;;22.10;64.00;;;;;;5061468;28;20024;-79
2023/07/25 09:13:48;;;;;;;0.00;0.00;;;28.20;52.50;;;;;;5060804;28;20332;-81
2023/07/25 09:16:15;;;;;;;0.00;0.00;;;29.50;49.40;;;;;;5062795;28;20036;-79
2023/07/25 09:18:41;;;;;;;0.00;0.00;;;31.20;48.50;;;;;;5061370;28;20788;-80
2023/07/25 09:21:07;;;;;;;0.00;0.00;;;30.20;46.90;;;;;;5056791;28;20102;-79
2023/07/25 09:23:34;;;;;;;0.25;0.25;;;32.90;45.70;;;;;;5060496;28;20115;-80
2023/07/25 09:26:10;;;;;;;0.22;0.22;;;26.60;48.40;;;;;;5056442;28;20035;-79
2023/07/25 09:28:46;;;;;;;0.03;0.03;;;26.10;55.70;;;;;;5060621;28;20533;-78
2023/07/25 09:31:12;;;;;;;0.17;0.17;;;27.50;49.20;;;;;;5061609;28;20037;-80
2023/07/25 09:33:39;;;;;;;0.00;0.00;;;27.30;51.00;;;;;;5061700;28;20028;-80
2023/07/25 09:36:07;;;;;;;0.40;0.40;;;30.50;48.60;;;;;;5063189;28;20028;-79
2023/07/25 09:38:36;;;;;;;0.08;0.00;;;32.30;44.60;;;;;;5055709;28;20018;-80
2023/07/25 09:41:05;;;;;;;0.38;0.38;;;29.20;45.10;;;;;;5055736;28;20114;-80
2023/07/25 09:43:31;;;;;;;0.22;0.22;;;25.60;52.10;;;;;;5055232;28;20024;-79
2023/07/25 09:45:57;;;;;;;0.00;0.00;;;23.70;56.50;;;;;;5061170;28;20029;-79
2023/07/25 09:48:22;;;;;;;0.00;0.00;;;22.70;57.50;;;;;;5060182;28;20043;-80
2023/07/25 09:50:48;;;;;;;4.13;0.63;;;26.30;54.10;;;;;;5058085;28;20120;-81
2023/07/25 09:53:17;;;;;;;0.00;0.00;;;25.60;52.00;;;;;;5060161;28;20315;-79
2023/07/25 09:55:45;;;;;;;0.63;0.63;;;25.60;54.20;;;;;;5055746;28;20020;-80
2023/07/25 09:58:12;;;;;;;0.00;0.00;;;29.80;48.50;;;;;;5060401;28;20032;-78
2023/07/25 10:00:39;;;;;;;0.10;0.10;;;31.80;44.30;;;;;;5063868;28;20020;-81
2023/07/25 10:03:08;;;;;;;0.00;0.00;;;32.50;40.90;;;;;;5060193;28;20404;-80
2023/07/25 10:05:35;;;;;;;0.00;0.00;;;26.10;48.10;;;;;;5056940;28;20035;-79
2023/07/25 10:08:01;;;;;;;0.00;0.00;;;23.90;54.00;;;;;;5053874;28;20028;-78
2023/07/25 10:10:29;;;;;;;0.00;0.00;;;23.60;55.00;;;;;;5056931;28;20086;-80
2023/07/25 10:12:55;;;;;;;0.28;0.13;;;23.40;57.30;;;;;;5058092;28;20086;-79
2023/07/25 10:15:21;;;;;;;0.00;0.00;;;29.90;48.70;;;;;;5059807;28;20437;-78
2023/07/25 10:17:47;;;;;;;0.00;0.00;;;29.20;46.80;;;;;;5058604;28;20495;-80
2023/07/25 10:20:21;;;;;;;0.00;0.00;;;30.40;45.40;;;;;;5059839;28;20084;-78
2023/07/25 10:22:50;;;;;;;0.00;0.00;;;29.20;45.60;;;;;;5059999;28;20044;-79
2023/07/25 10:25:21;;;;;;;0.10;0.10;;;27.30;48.20;;;;;;5057832;28;20563;-78
2023/07/25 10:27:47;;;;;;;0.00;0.00;;;27.60;50.10;;;;;;5060324;28;20162;-79
2023/07/25 10:30:25;;;;;;;0.25;0.25;;;27.30;47.80;;;;;;5054845;28;20041;-78
2023/07/25 10:32:54;;;;;;;0.00;0.00;;;24.10;53.10;;;;;;5052970;28;20024;-78
2023/07/25 10:35:45;;;;;;;0.00;0.00;;;27.40;50.60;;;;;;5059236;28;20051;-78
2023/07/25 10:38:13;;;;;;;0.00;0.00;;;28.40;49.20;;;;;;5060711;28;20032;-77
2023/07/25 10:40:57;;;;;;;0.30;0.10;;;30.10;44.00;;;;;;5059369;28;20079;-78
2023/07/25 10:43:51;;;;;;;0.10;0.10;;;28.40;44.90;;;;;;5061291;28;20028;-78
2023/07/25 10:46:23;;;;;;;0.00;0.00;;;29.70;44.10;;;;;;5058996;28;20040;-79
2023/07/25 10:48:50;;;;;;;0.00;0.00;;;29.90;43.50;;;;;;5051837;28;20029;-80
2023/07/25 10:51:17;;;;;;;0.20;0.20;;;27.90;46.80;;;;;;5060304;28;20044;-78
2023/07/25 10:54:09;;;;;;;0.00;0.00;;;27.10;48.10;;;;;;5069433;28;20032;-78
2023/07/25 10:56:38;;;;;;;0.10;0.10;;;25.00;50.00;;;;;;5056610;28;20032;-78
2023/07/25 10:59:14;;;;;;;0.00;0.00;;;26.30;52.80;;;;;;5054690;28;20056;-78
2023/07/25 11:01:46;;;;;;;0.15;0.15;;;26.40;51.80;;;;;;5056468;28;20044;-79
2023/07/25 11:04:25;;;;;;;0.03;0.03;;;26.00;50.90;;;;;;5058906;28;20074;-78
2023/07/25 11:06:56;;;;;;;0.20;0.15;;;25.90;50.20;;;;;;5057602;28;20033;-77
2023/07/25 11:09:23;;;;;;;0.20;0.20;;;23.90;48.30;;;;;;5054133;28;20564;-79
2023/07/25 11:11:51;;;;;;;0.10;0.10;;;23.30;51.30;;;;;;5054111;28;20048;-78
2023/07/25 11:14:18;;;;;;;0.10;0.10;;;23.30;53.20;;;;;;5060366;28;20028;-79
2023/07/25 11:16:46;;;;;;;0.00;0.00;;;22.80;54.90;;;;;;5060994;28;20081;-77
2023/07/25 11:19:14;;;;;;;0.00;0.00;;;22.60;56.80;;;;;;5059721;28;20043;-77
2023/07/25 11:21:41;;;;;;;0.00;0.00;;;22.50;57.80;;;;;;5063164;28;20059;-78
2023/07/25 11:24:07;;;;;;;0.10;0.10;;;22.40;57.60;;;;;;5060665;28;20032;-77
2023/07/25 11:26:33;;;;;;;;;;;23.20;56.80;;;;;;5064248;28;20028;-77
2023/07/25 11:29:03;;;;;;;0.00;0.00;;;24.40;56.10;;;;;;5063910;28;20025;-77
2023/07/25 11:31:29;;;;;;;0.00;0.00;;;24.90;53.80;;;;;;5058957;28;20044;-77
2023/07/25 11:33:55;;;;;;;0.00;0.00;;;25.30;54.00;;;;;;5063658;28;20032;-77
2023/07/25 11:36:24;;;;;;;0.00;0.00;;;25.00;53.20;;;;;;5063558;28;20037;-77
2023/07/25 11:38:49;;;;;;;0.00;0.00;;;24.70;53.60;;;;;;5064059;28;20036;-78
2023/07/25 11:41:16;;;;;;;0.00;0.00;;;24.50;54.30;;;;;;5061649;28;20068;-77
2023/07/25 11:43:42;;;;;;;0.00;0.00;;;24.50;54.00;;;;;;5063469;28;20075;-78
2023/07/25 11:46:08;;;;;;;0.80;0.28;;;23.90;54.40;;;;;;5064124;28;20032;-77
2023/07/25 11:48:34;;;;;;;1.85;0.75;;;23.80;53.10;;;;;;5062516;28;20056;-77
2023/07/25 11:51:00;;;;;;;0.00;0.00;;;24.20;56.50;;;;;;5059269;28;20507;-78
2023/07/25 11:53:27;;;;;;;0.00;0.00;;;24.10;54.80;;;;;;5063623;28;20664;-77
2023/07/25 11:55:55;;;;;;;0.00;0.00;;;23.60;56.50;;;;;;5061010;28;20095;-78
2023/07/25 11:58:22;;;;;;;0.00;0.00;;;23.50;55.50;;;;;;5061916;28;20024;-76
2023/07/25 12:00:52;;;;;;;0.00;0.00;;;23.70;54.70;;;;;;5063159;28;20545;-78
2023/07/25 12:03:20;;;;;;;0.05;0.05;;;24.40;55.60;;;;;;5060777;28;20024;-77
2023/07/25 12:05:54;;;;;;;0.00;0.00;;;24.20;54.50;;;;;;5062964;28;20021;-77
2023/07/25 12:08:30;;;;;;;0.00;0.00;;;24.50;55.00;;;;;;5063835;28;20032;-77
2023/07/25 12:11:03;;;;;;;0.00;0.00;;;24.50;54.10;;;;;;5062804;28;20368;-77
2023/07/25 12:13:29;;;;;;;0.00;0.00;;;24.40;53.80;;;;;;5061553;28;20094;-78
2023/07/25 12:15:56;;;;;;;0.00;0.00;;;25.00;53.30;;;;;;5055459;28;20025;-76
2023/07/25 12:18:26;;;;;;;0.00;0.00;;;24.90;51.20;;;;;;5063730;28;20135;-79
2023/07/25 12:20:53;;;;;;;0.00;0.00;;;24.30;54.10;;;;;;5063025;28;20071;-80
2023/07/25 12:23:32;;;;;;;0.00;0.00;;;23.60;52.30;;;;;;5063700;28;20028;-79
2023/07/25 12:26:01;;;;;;;0.00;0.00;;;23.30;53.00;;;;;;5063768;28;20039;-82
2023/07/25 12:28:39;;;;;;;0.25;0.25;;;23.20;54.20;;;;;;5064081;28;20028;-83
2023/07/25 12:31:04;;;;;;;0.00;0.00;;;23.20;52.30;;;;;;5059184;28;20048;-81
2023/07/25 12:33:30;;;;;;;0.00;0.00;;;23.70;53.80;;;;;;5062091;28;20020;-83
2023/07/25 12:35:57;;;;;;;0.00;0.00;;;24.00;53.00;;;;;;5063098;28;20020;-83
2023/07/25 12:38:23;;;;;;;1.75;0.20;;;23.90;51.10;;;;;;5063359;28;20039;-82
2023/07/25 12:40:49;;;;;;;0.00;0.00;;;23.90;55.60;;;;;;5061515;28;20032;-83
2023/07/25 12:43:16;;;;;;;0.00;0.00;;;23.40;55.60;;;;;;5061781;28;20578;-83
2023/07/25 12:45:43;;;;;;;3.83;0.63;;;23.20;56.20;;;;;;5058833;28;20021;-80